createdAt,value
2023-04-01T00:00:03.018Z,94287.6
2023-04-01T00:01:04.937Z,94287.3
2023-04-01T00:02:06.824Z,94289.4
2023-04-01T00:03:09.416Z,94288.2
2023-04-01T00:04:11.400Z,94288.2
2023-04-01T00:05:13.541Z,94289.5
2023-04-01T00:06:15.612Z,94291.6
2023-04-01T00:07:17.738Z,94294.3
2023-04-01T00:08:19.854Z,94290.9
2023-04-01T00:09:22.013Z,94294.4
2023-04-01T00:10:24.151Z,94291.3
2023-04-01T00:11:25.885Z,94284.4
2023-04-01T00:12:27.792Z,94288.6
2023-04-01T00:13:29.887Z,94288.4
2023-04-01T00:14:32.082Z,94275.6
2023-04-01T00:15:34.942Z,94273.3
2023-04-01T00:16:37.198Z,94281
2023-04-01T00:17:39.502Z,94270.9
2023-04-01T00:18:41.683Z,94277.5
2023-04-01T00:19:43.781Z,94275.8
2023-04-01T00:20:45.899Z,94273.5
2023-04-01T00:21:48.080Z,94270.5
2023-04-01T00:22:49.959Z,94270.9
2023-04-01T00:23:51.497Z,94270.6
2023-04-01T00:24:53.914Z,94265
2023-04-01T00:25:55.824Z,94264.4
2023-04-01T00:26:57.895Z,94262.4
2023-04-01T00:28:00.009Z,94256.9
2023-04-01T00:29:02.126Z,94263.2
2023-04-01T00:30:04.177Z,94256.3
2023-04-01T00:31:06.552Z,94263
2023-04-01T00:32:08.914Z,94259.5
2023-04-01T00:33:11.079Z,94259.7
2023-04-01T00:34:13.257Z,94260.6
2023-04-01T00:35:15.364Z,94263.1
2023-04-01T00:36:17.744Z,94261.3
2023-04-01T00:37:19.576Z,94262.1
2023-04-01T00:38:21.462Z,94255.2
2023-04-01T00:39:23.365Z,94261.9
2023-04-01T00:40:25.250Z,94268.1
2023-04-01T00:41:26.979Z,94263.9
2023-04-01T00:42:28.884Z,94271
2023-04-01T00:43:30.944Z,94263.7
2023-04-01T00:44:32.852Z,94260.5
2023-04-01T00:45:35.439Z,94266.8
2023-04-01T00:46:37.712Z,94263.5
2023-04-01T00:47:40.090Z,94259.5
2023-04-01T00:48:42.288Z,94258
2023-04-01T00:49:44.390Z,94264.9
2023-04-01T00:50:46.288Z,94262
2023-04-01T00:51:48.354Z,94257.9
2023-04-01T00:52:50.511Z,94255.5
2023-04-01T00:53:52.451Z,94255.4
2023-04-01T00:54:54.568Z,94254.6
2023-04-01T00:55:56.296Z,94257.1
2023-04-01T00:56:58.604Z,94255.6
2023-04-01T00:58:00.612Z,94259.1
2023-04-01T00:59:02.700Z,94256
2023-04-01T01:00:04.784Z,94251.9
2023-04-01T01:01:07.216Z,94253.2
2023-04-01T01:02:09.476Z,94249.1
2023-04-01T01:03:11.704Z,94254.2
2023-04-01T01:04:13.704Z,94253.7
2023-04-01T01:05:15.610Z,94260.9
2023-04-01T01:06:17.708Z,94259.9
2023-04-01T01:07:19.607Z,94260.7
2023-04-01T01:08:21.492Z,94260.9
2023-04-01T01:09:23.601Z,94253.3
2023-04-01T01:10:25.290Z,94255.4
2023-04-01T01:12:34.352Z,94255.4
2023-04-01T01:13:36.533Z,94257.9
2023-04-01T01:14:38.655Z,94261.8
2023-04-01T01:15:40.738Z,94257.8
2023-04-01T01:16:43.211Z,94260.6
2023-04-01T01:17:45.682Z,94253.3
2023-04-01T01:18:47.441Z,94265.3
2023-04-01T01:19:49.518Z,94253.8
2023-04-01T01:20:51.636Z,94254
2023-04-01T01:21:53.531Z,94254.7
2023-04-01T01:22:55.010Z,94252.4
2023-04-01T01:23:57.067Z,94257.6
2023-04-01T01:24:59.408Z,94249.1
2023-04-01T01:26:01.477Z,94254.5
2023-04-01T01:27:03.612Z,94257.8
2023-04-01T01:28:05.739Z,94257.4
2023-04-01T01:29:07.654Z,94246.4
2023-04-01T01:30:09.534Z,94255.4
2023-04-01T01:31:11.798Z,94263.7
2023-04-01T01:32:13.815Z,94257.5
2023-04-01T01:33:16.095Z,94260
2023-04-01T01:34:18.085Z,94253.5
2023-04-01T01:35:20.242Z,94252.9
2023-04-01T01:36:22.634Z,94248.1
2023-04-01T01:37:24.869Z,94246.9
2023-04-01T01:38:26.603Z,94251.5
2023-04-01T01:39:28.521Z,94254.9
2023-04-01T01:40:30.042Z,94253.1
2023-04-01T01:41:32.151Z,94251.7
2023-04-01T01:42:33.836Z,94243.1
2023-04-01T01:43:35.755Z,94247
2023-04-01T01:44:37.702Z,94249.3
2023-04-01T01:45:39.830Z,94246.7
2023-04-01T01:46:41.864Z,94242.5
2023-04-01T01:47:44.238Z,94243.4
2023-04-01T01:48:46.773Z,94238.1
2023-04-01T01:49:48.897Z,94245.4
2023-04-01T01:50:50.848Z,94240.7
2023-04-01T01:51:52.928Z,94247.6
2023-04-01T01:52:55.012Z,94244.2
2023-04-01T01:53:56.902Z,94241.6
2023-04-01T01:54:58.799Z,94244.1
2023-04-01T01:56:00.698Z,94236.3
2023-04-01T01:57:03.028Z,94255.5
2023-04-01T01:58:04.965Z,94242.8
2023-04-01T01:59:07.096Z,94254
2023-04-01T02:00:09.014Z,94246.2
2023-04-01T02:01:11.063Z,94251.8
2023-04-01T02:02:13.054Z,94256.3
2023-04-01T02:03:15.271Z,94261.5
2023-04-01T02:04:17.829Z,94257.9
2023-04-01T02:05:19.979Z,94260.6
2023-04-01T02:06:22.050Z,94259.3
2023-04-01T02:07:23.942Z,94262
2023-04-01T02:08:25.875Z,94260.1
2023-04-01T02:09:27.974Z,94259.6
2023-04-01T02:10:29.865Z,94260.2
2023-04-01T02:11:31.577Z,94262.7
2023-04-01T02:12:33.682Z,94261.2
2023-04-01T02:13:35.778Z,94260.6
2023-04-01T02:14:37.493Z,94255.4
2023-04-01T02:15:39.586Z,94260
2023-04-01T02:16:41.781Z,94256.2
2023-04-01T02:17:44.195Z,94260.3
2023-04-01T02:18:46.447Z,94256.3
2023-04-01T02:19:48.557Z,94258.6
2023-04-01T02:20:50.442Z,94256.1
2023-04-01T02:21:52.562Z,94263
2023-04-01T02:22:54.227Z,94267.4
2023-04-01T02:23:55.934Z,94252.6
2023-04-01T02:25:12.557Z,94260.8
2023-04-01T02:26:14.430Z,94254
2023-04-01T02:27:16.207Z,94258.8
2023-04-01T02:28:18.325Z,94258.8
2023-04-01T02:29:20.201Z,94254.9
2023-04-01T02:30:22.292Z,94256.1
2023-04-01T02:31:24.561Z,94264.3
2023-04-01T02:32:26.431Z,94261
2023-04-01T02:33:28.166Z,94260
2023-04-01T02:34:30.350Z,94262.4
2023-04-01T02:35:33.495Z,94260.7
2023-04-01T02:36:35.824Z,94262.9
2023-04-01T02:38:42.710Z,94265.5
2023-04-01T02:39:44.473Z,94262.7
2023-04-01T02:40:46.369Z,94269.9
2023-04-01T02:41:48.263Z,94261.2
2023-04-01T02:42:50.342Z,94277.8
2023-04-01T02:43:52.017Z,94268.8
2023-04-01T02:44:54.204Z,94280.2
2023-04-01T02:45:56.160Z,94282.3
2023-04-01T02:46:58.411Z,94272.9
2023-04-01T02:48:00.541Z,94271.3
2023-04-01T02:49:02.752Z,94276.9
2023-04-01T02:50:04.907Z,94273.3
2023-04-01T02:51:06.827Z,94275.5
2023-04-01T02:52:08.937Z,94266.7
2023-04-01T02:53:10.838Z,94274.4
2023-04-01T02:54:12.562Z,94273.8
2023-04-01T02:55:14.453Z,94272.9
2023-04-01T02:56:16.391Z,94273.5
2023-04-01T02:57:18.572Z,94268.7
2023-04-01T02:58:20.545Z,94268.7
2023-04-01T02:59:22.637Z,94270
2023-04-01T03:00:24.706Z,94271.6
2023-04-01T03:01:26.627Z,94272.4
2023-04-01T03:02:29.001Z,94268.8
2023-04-01T03:03:31.502Z,94275.2
2023-04-01T03:04:33.717Z,94271.9
2023-04-01T03:05:36.762Z,94271.3
2023-04-01T03:06:38.860Z,94269.6
2023-04-01T03:07:40.973Z,94276.3
2023-04-01T03:08:43.048Z,94272.7
2023-04-01T03:09:45.179Z,94268.7
2023-04-01T03:10:46.860Z,94284.4
2023-04-01T03:11:48.818Z,94281.5
2023-04-01T03:12:50.965Z,94276.9
2023-04-01T03:13:52.632Z,94280
2023-04-01T03:14:54.709Z,94278.6
2023-04-01T03:15:56.784Z,94276.5
2023-04-01T03:16:59.126Z,94274.3
2023-04-01T03:18:01.333Z,94269
2023-04-01T03:19:03.451Z,94274.2
2023-04-01T03:20:05.546Z,94279.4
2023-04-01T03:21:07.310Z,94273.4
2023-04-01T03:22:09.230Z,94287.5
2023-04-01T03:23:11.291Z,94281.4
2023-04-01T03:24:13.046Z,94283.6
2023-04-01T03:25:14.604Z,94281.6
2023-04-01T03:26:16.501Z,94288.4
2023-04-01T03:27:18.575Z,94294.3
2023-04-01T03:28:20.432Z,94277
2023-04-01T03:29:22.354Z,94288
2023-04-01T03:30:24.476Z,94278.7
2023-04-01T03:31:26.927Z,94283.9
2023-04-01T03:32:29.454Z,94283
2023-04-01T03:33:31.570Z,94286.4
2023-04-01T03:34:33.663Z,94290.2
2023-04-01T03:35:36.303Z,94290.5
2023-04-01T03:36:38.688Z,94287.4
2023-04-01T03:37:40.909Z,94287.8
2023-04-01T03:38:42.838Z,94292.6
2023-04-01T03:39:46.019Z,94284.6
2023-04-01T03:40:48.075Z,94286.7
2023-04-01T03:41:50.141Z,94289.3
2023-04-01T03:42:52.431Z,94294.7
2023-04-01T03:43:54.166Z,94293.9
2023-04-01T03:44:56.266Z,94299.9
2023-04-01T03:45:58.505Z,94298
2023-04-01T03:47:00.556Z,94295.1
2023-04-01T03:48:02.614Z,94293.4
2023-04-01T03:49:04.491Z,94288
2023-04-01T03:50:06.566Z,94291.3
2023-04-01T03:51:08.467Z,94287.5
2023-04-01T03:52:10.630Z,94299.8
2023-04-01T03:53:12.795Z,94295.9
2023-04-01T03:54:14.908Z,94297.4
2023-04-01T03:55:16.995Z,94299.9
2023-04-01T03:56:19.061Z,94301
2023-04-01T03:57:21.418Z,94292.4
2023-04-01T03:58:23.591Z,94296.1
2023-04-01T03:59:25.679Z,94294
2023-04-01T04:00:27.798Z,94296.6
2023-04-01T04:01:29.480Z,94293.5
2023-04-01T04:02:31.825Z,94297.2
2023-04-01T04:03:34.227Z,94295.8
2023-04-01T04:04:36.473Z,94298.1
2023-04-01T04:05:38.680Z,94300
2023-04-01T04:06:40.775Z,94295.5
2023-04-01T04:07:42.749Z,94298.7
2023-04-01T04:08:44.848Z,94302.9
2023-04-01T04:09:46.971Z,94305.1
2023-04-01T04:10:49.064Z,94303.1
2023-04-01T04:11:51.128Z,94305.8
2023-04-01T04:12:52.815Z,94303.9
2023-04-01T04:13:58.832Z,94301.3
2023-04-01T04:15:00.953Z,94304.5
2023-04-01T04:16:03.112Z,94307.3
2023-04-01T04:17:05.108Z,94299.5
2023-04-01T04:18:07.201Z,94299.7
2023-04-01T04:19:09.268Z,94300
2023-04-01T04:20:11.358Z,94300.2
2023-04-01T04:21:13.266Z,94306.4
2023-04-01T04:22:15.149Z,94304.6
2023-04-01T04:23:17.322Z,94301.4
2023-04-01T04:24:19.416Z,94300.4
2023-04-01T04:25:21.373Z,94299.9
2023-04-01T04:26:22.892Z,94303
2023-04-01T04:27:24.780Z,94299.2
2023-04-01T04:28:26.693Z,94298.6
2023-04-01T04:29:28.803Z,94297.1
2023-04-01T04:30:30.696Z,94294.4
2023-04-01T04:31:32.951Z,94301.3
2023-04-01T04:32:34.998Z,94306.8
2023-04-01T04:33:36.962Z,94294
2023-04-01T04:34:39.096Z,94309.7
2023-04-01T04:35:41.374Z,94310.5
2023-04-01T04:36:43.156Z,94305.2
2023-04-01T04:37:44.859Z,94308.1
2023-04-01T04:38:47.035Z,94308.4
2023-04-01T04:39:49.156Z,94311
2023-04-01T04:40:51.030Z,94310.2
2023-04-01T04:41:53.146Z,94314.7
2023-04-01T04:42:55.155Z,94308.9
2023-04-01T04:43:56.956Z,94311.7
2023-04-01T04:44:58.857Z,94311.8
2023-04-01T04:46:00.749Z,94317
2023-04-01T04:47:02.882Z,94317.4
2023-04-01T04:48:05.327Z,94320.5
2023-04-01T04:49:07.503Z,94321.6
2023-04-01T04:50:09.640Z,94323.9
2023-04-01T04:51:11.584Z,94313.6
2023-04-01T04:52:13.470Z,94314
2023-04-01T04:53:15.715Z,94317.9
2023-04-01T04:54:17.908Z,94314
2023-04-01T04:55:20.023Z,94322.5
2023-04-01T04:56:22.131Z,94323.4
2023-04-01T04:57:24.036Z,94318
2023-04-01T04:58:26.194Z,94317.8
2023-04-01T04:59:28.321Z,94317.1
2023-04-01T05:00:30.384Z,94318.7
2023-04-01T05:01:32.542Z,94322.6
2023-04-01T05:02:35.031Z,94316.5
2023-04-01T05:03:37.711Z,94325.7
2023-04-01T05:04:39.872Z,94321.5
2023-04-01T05:05:41.795Z,94320
2023-04-01T05:06:43.912Z,94329
2023-04-01T05:07:46.003Z,94329.2
2023-04-01T05:08:48.088Z,94333
2023-04-01T05:09:50.088Z,94325.8
2023-04-01T05:10:52.202Z,94333
2023-04-01T05:11:54.117Z,94329.7
2023-04-01T05:12:56.188Z,94330.1
2023-04-01T05:13:58.270Z,94325.4
2023-04-01T05:15:00.332Z,94321.6
2023-04-01T05:16:02.243Z,94322.2
2023-04-01T05:17:04.574Z,94327.3
2023-04-01T05:18:06.860Z,94326.7
2023-04-01T05:19:08.835Z,94340.7
2023-04-01T05:20:10.583Z,94323.5
2023-04-01T05:21:12.526Z,94327.4
2023-04-01T05:22:14.430Z,94318.2
2023-04-01T05:23:16.551Z,94320
2023-04-01T05:24:18.272Z,94326.8
2023-04-01T05:25:20.374Z,94322.2
2023-04-01T05:26:22.480Z,94313.4
2023-04-01T05:27:24.374Z,94317.7
2023-04-01T05:28:26.311Z,94313.5
2023-04-01T05:29:28.206Z,94320.8
2023-04-01T05:30:30.281Z,94326.4
2023-04-01T05:31:32.404Z,94322.3
2023-04-01T05:32:34.920Z,94331.1
2023-04-01T05:33:37.031Z,94332.4
2023-04-01T05:34:39.136Z,94326
2023-04-01T05:35:41.336Z,94315.9
2023-04-01T05:36:43.530Z,94330.6
2023-04-01T05:37:45.457Z,94325.4
2023-04-01T05:38:47.711Z,94320.1
2023-04-01T05:39:49.799Z,94325.7
2023-04-01T05:40:51.976Z,94320.5
2023-04-01T05:41:54.075Z,94321.8
2023-04-01T05:42:55.785Z,94322.2
2023-04-01T05:43:57.462Z,94321.3
2023-04-01T05:44:59.569Z,94316.1
2023-04-01T05:46:01.736Z,94314.4
2023-04-01T05:47:03.763Z,94322.9
2023-04-01T05:48:06.050Z,94318.2
2023-04-01T05:49:08.227Z,94327.9
2023-04-01T05:50:10.320Z,94315.1
2023-04-01T05:51:12.209Z,94323.9
2023-04-01T05:52:14.340Z,94327.9
2023-04-01T05:53:16.451Z,94330.2
2023-04-01T05:54:18.807Z,94319.5
2023-04-01T05:55:20.943Z,94316.2
2023-04-01T05:56:23.178Z,94319.3
2023-04-01T05:57:25.516Z,94327.3
2023-04-01T05:58:27.565Z,94312.8
2023-04-01T05:59:29.662Z,94323
2023-04-01T06:00:31.751Z,94319.3
2023-04-01T06:01:33.852Z,94327.4
2023-04-01T06:02:35.806Z,94325.7
2023-04-01T06:03:39.007Z,94324.5
2023-04-01T06:04:41.689Z,94333.9
2023-04-01T06:05:43.867Z,94321.8
2023-04-01T06:06:46.031Z,94326.3
2023-04-01T06:07:47.791Z,94321
2023-04-01T06:08:49.884Z,94327.3
2023-04-01T06:09:51.959Z,94323
2023-04-01T06:10:54.057Z,94326
2023-04-01T06:11:56.250Z,94319.4
2023-04-01T06:12:58.346Z,94324.2
2023-04-01T06:14:00.203Z,94320.6
2023-04-01T06:15:02.143Z,94321.1
2023-04-01T06:16:04.446Z,94315.3
2023-04-01T06:17:06.200Z,94318.6
2023-04-01T06:18:08.663Z,94316.1
2023-04-01T06:19:11.120Z,94309.8
2023-04-01T06:20:13.207Z,94310.7
2023-04-01T06:21:15.141Z,94310.8
2023-04-01T06:22:17.072Z,94321.5
2023-04-01T06:23:19.249Z,94318.9
2023-04-01T06:24:21.359Z,94323.7
2023-04-01T06:25:23.280Z,94320
2023-04-01T06:26:25.432Z,94323.1
2023-04-01T06:27:27.651Z,94323.1
2023-04-01T06:28:29.791Z,94314.1
2023-04-01T06:29:31.558Z,94325.8
2023-04-01T06:30:33.741Z,94319.6
2023-04-01T06:31:36.093Z,94318.4
2023-04-01T06:32:38.516Z,94324.1
2023-04-01T06:33:40.642Z,94323.9
2023-04-01T06:34:42.756Z,94317.4
2023-04-01T06:35:45.358Z,94324
2023-04-01T06:36:47.506Z,94321.1
2023-04-01T06:37:49.290Z,94320
2023-04-01T06:38:51.481Z,94324.8
2023-04-01T06:39:53.407Z,94321.4
2023-04-01T06:40:55.286Z,94321.4
2023-04-01T06:41:56.981Z,94323.3
2023-04-01T06:42:59.353Z,94318.8
2023-04-01T06:44:01.584Z,94312
2023-04-01T06:45:03.407Z,94314.5
2023-04-01T06:46:05.570Z,94326
2023-04-01T06:47:07.818Z,94315.2
2023-04-01T06:48:09.896Z,94328.4
2023-04-01T06:49:11.490Z,94318.4
2023-04-01T06:50:13.383Z,94321.4
2023-04-01T06:51:15.534Z,94320.4
2023-04-01T06:52:17.519Z,94329
2023-04-01T06:53:19.463Z,94321.6
2023-04-01T06:54:21.221Z,94314.6
2023-04-01T06:55:24.348Z,94321.4
2023-04-01T06:56:26.453Z,94329.8
2023-04-01T06:57:28.818Z,94326.4
2023-04-01T06:58:31.418Z,94318.5
2023-04-01T06:59:33.547Z,94319.7
2023-04-01T07:00:35.460Z,94327.8
2023-04-01T07:01:37.844Z,94327.4
2023-04-01T07:02:40.410Z,94325.6
2023-04-01T07:03:42.376Z,94322.2
2023-04-01T07:04:44.475Z,94333.2
2023-04-01T07:05:46.784Z,94335.5
2023-04-01T07:06:48.956Z,94324.8
2023-04-01T07:07:51.037Z,94326.9
2023-04-01T07:08:52.919Z,94332.9
2023-04-01T07:09:55.183Z,94336.7
2023-04-01T07:10:57.112Z,94328.6
2023-04-01T07:11:59.225Z,94332.2
2023-04-01T07:13:01.113Z,94336.3
2023-04-01T07:14:03.268Z,94331.7
2023-04-01T07:15:05.001Z,94338.8
2023-04-01T07:16:06.995Z,94336
2023-04-01T07:17:09.507Z,94334.7
2023-04-01T07:18:11.910Z,94333.4
2023-04-01T07:19:14.062Z,94343.6
2023-04-01T07:20:16.183Z,94335.4
2023-04-01T07:21:18.377Z,94341.8
2023-04-01T07:22:20.486Z,94349.9
2023-04-01T07:23:22.632Z,94326.1
2023-04-01T07:24:24.983Z,94322.1
2023-04-01T07:25:27.137Z,94343.6
2023-04-01T07:26:29.323Z,94336.2
2023-04-01T07:27:31.427Z,94324.9
2023-04-01T07:28:33.532Z,94328.5
2023-04-01T07:29:35.746Z,94326.3
2023-04-01T07:30:37.857Z,94329.6
2023-04-01T07:31:40.223Z,94333.9
2023-04-01T07:32:42.391Z,94351.1
2023-04-01T07:33:44.550Z,94331.6
2023-04-01T07:34:46.482Z,94331.5
2023-04-01T07:35:48.711Z,94328.1
2023-04-01T07:36:50.800Z,94337.6
2023-04-01T07:37:52.714Z,94332.6
2023-04-01T07:38:54.578Z,94338.5
2023-04-01T07:39:56.791Z,94342
2023-04-01T07:40:59.518Z,94336.7
2023-04-01T07:42:01.661Z,94350.1
2023-04-01T07:43:03.595Z,94338
2023-04-01T07:44:05.510Z,94332.7
2023-04-01T07:45:07.685Z,94339.7
2023-04-01T07:46:10.087Z,94353.4
2023-04-01T07:47:12.287Z,94339.1
2023-04-01T07:48:14.041Z,94357.2
2023-04-01T07:49:15.978Z,94349.6
2023-04-01T07:50:18.219Z,94350
2023-04-01T07:51:20.120Z,94351.6
2023-04-01T07:52:22.249Z,94343.8
2023-04-01T07:53:24.335Z,94351.9
2023-04-01T07:54:26.220Z,94348.9
2023-04-01T07:55:28.126Z,94354.4
2023-04-01T07:56:30.190Z,94361.5
2023-04-01T07:57:32.444Z,94351.9
2023-04-01T07:58:34.639Z,94351.1
2023-04-01T07:59:36.720Z,94357.1
2023-04-01T08:00:38.894Z,94354.2
2023-04-01T08:01:41.003Z,94353.4
2023-04-01T08:02:43.429Z,94357.1
2023-04-01T08:03:46.332Z,94369.9
2023-04-01T08:04:48.996Z,94357.2
2023-04-01T08:05:51.014Z,94362.8
2023-04-01T08:06:53.144Z,94351.7
2023-04-01T08:07:55.079Z,94341.4
2023-04-01T08:08:57.016Z,94334.4
2023-04-01T08:09:59.119Z,94354.2
2023-04-01T08:11:01.213Z,94349.6
2023-04-01T08:12:03.403Z,94343.5
2023-04-01T08:13:04.955Z,94344.3
2023-04-01T08:14:07.063Z,94345.8
2023-04-01T08:15:09.158Z,94349.2
2023-04-01T08:16:11.345Z,94340.5
2023-04-01T08:17:13.417Z,94343.2
2023-04-01T08:18:15.525Z,94348.7
2023-04-01T08:19:17.447Z,94361.9
2023-04-01T08:20:19.596Z,94350.3
2023-04-01T08:21:21.522Z,94343.3
2023-04-01T08:22:23.718Z,94350.4
2023-04-01T08:23:25.706Z,94346
2023-04-01T08:25:34.118Z,94345.2
2023-04-01T08:26:36.971Z,94332.8
2023-04-01T08:27:38.910Z,94336
2023-04-01T08:28:41.009Z,94329.1
2023-04-01T08:29:42.931Z,94324.7
2023-04-01T08:30:44.706Z,94337.5
2023-04-01T08:31:47.058Z,94338.3
2023-04-01T08:32:49.375Z,94352.5
2023-04-01T08:33:51.599Z,94317.2
2023-04-01T08:34:53.305Z,94322.6
2023-04-01T08:35:55.343Z,94334.4
2023-04-01T08:36:57.523Z,94334.4
2023-04-01T08:37:59.700Z,94339.8
2023-04-01T08:39:01.614Z,94332
2023-04-01T08:40:03.584Z,94344
2023-04-01T08:41:05.477Z,94334.1
2023-04-01T08:42:07.398Z,94349.2
2023-04-01T08:43:09.588Z,94342.7
2023-04-01T08:44:11.408Z,94334.6
2023-04-01T08:46:18.221Z,94341.4
2023-04-01T08:47:20.586Z,94334.6
2023-04-01T08:48:22.560Z,94341.9
2023-04-01T08:49:24.480Z,94332.6
2023-04-01T08:50:26.356Z,94331.1
2023-04-01T08:51:28.237Z,94346.4
2023-04-01T08:52:30.330Z,94337.8
2023-04-01T08:53:32.416Z,94331.1
2023-04-01T08:54:34.305Z,94337.4
2023-04-01T08:55:36.691Z,94334.7
2023-04-01T08:56:38.771Z,94326.8
2023-04-01T08:57:40.882Z,94327
2023-04-01T08:58:43.028Z,94325.7
2023-04-01T08:59:44.902Z,94326.8
2023-04-01T09:00:46.797Z,94325.5
2023-04-01T09:01:48.538Z,94331.7
2023-04-01T09:02:50.966Z,94330.1
2023-04-01T09:03:53.443Z,94329
2023-04-01T09:04:55.349Z,94328.1
2023-04-01T09:05:57.429Z,94325.3
2023-04-01T09:06:59.535Z,94324.2
2023-04-01T09:08:01.612Z,94326.6
2023-04-01T09:09:03.540Z,94326.5
2023-04-01T09:10:05.236Z,94318.8
2023-04-01T09:11:07.351Z,94318.4
2023-04-01T09:12:09.597Z,94317.2
2023-04-01T09:13:11.873Z,94317.6
2023-04-01T09:14:13.781Z,94324.8
2023-04-01T09:15:15.879Z,94310
2023-04-01T09:16:17.972Z,94317.7
2023-04-01T09:17:20.303Z,94316.3
2023-04-01T09:18:22.552Z,94311.6
2023-04-01T09:19:24.482Z,94318.2
2023-04-01T09:20:26.555Z,94318.7
2023-04-01T09:21:28.705Z,94325.6
2023-04-01T09:22:30.819Z,94323.8
2023-04-01T09:23:32.489Z,94323.5
2023-04-01T09:24:34.186Z,94312.2
2023-04-01T09:25:36.778Z,94324
2023-04-01T09:26:38.849Z,94313.6
2023-04-01T09:27:40.537Z,94311.4
2023-04-01T09:28:42.224Z,94317.4
2023-04-01T09:29:44.345Z,94314.3
2023-04-01T09:30:46.602Z,94318.3
2023-04-01T09:31:49.133Z,94324.7
2023-04-01T09:32:51.724Z,94311.1
2023-04-01T09:33:53.946Z,94313.4
2023-04-01T09:34:56.133Z,94315.2
2023-04-01T09:35:58.285Z,94314.5
2023-04-01T09:37:00.494Z,94311.4
2023-04-01T09:38:02.445Z,94311.5
2023-04-01T09:39:04.558Z,94303.7
2023-04-01T09:40:06.642Z,94302.7
2023-04-01T09:41:08.343Z,94305.2
2023-04-01T09:42:10.300Z,94297.8
2023-04-01T09:43:12.200Z,94290
2023-04-01T09:44:14.288Z,94303.5
2023-04-01T09:45:16.426Z,94298.3
2023-04-01T09:46:18.727Z,94294.1
2023-04-01T09:47:20.745Z,94293
2023-04-01T09:48:23.097Z,94302.8
2023-04-01T09:49:25.277Z,94306.8
2023-04-01T09:50:27.212Z,94282.9
2023-04-01T09:51:29.117Z,94297.7
2023-04-01T09:52:31.227Z,94292.9
2023-04-01T09:53:33.358Z,94281.9
2023-04-01T09:54:35.273Z,94282.2
2023-04-01T09:55:37.161Z,94283.5
2023-04-01T09:56:39.085Z,94305.4
2023-04-01T09:57:41.417Z,94304.5
2023-04-01T09:58:45.048Z,94297.2
2023-04-01T09:59:47.151Z,94282.9
2023-04-01T10:00:49.355Z,94304.7
2023-04-01T10:01:51.664Z,94290.9
2023-04-01T10:02:53.985Z,94289.5
2023-04-01T10:03:56.199Z,94287
2023-04-01T10:04:58.170Z,94287.3
2023-04-01T10:06:00.305Z,94286.4
2023-04-01T10:07:02.485Z,94285.9
2023-04-01T10:08:04.510Z,94294.7
2023-04-01T10:09:06.410Z,94287.6
2023-04-01T10:10:08.367Z,94296.2
2023-04-01T10:11:10.543Z,94299.4
2023-04-01T10:12:12.480Z,94297.7
2023-04-01T10:13:14.587Z,94286.3
2023-04-01T10:14:16.744Z,94290.2
2023-04-01T10:15:18.465Z,94298.8
2023-04-01T10:16:21.006Z,94304.6
2023-04-01T10:17:23.160Z,94286
2023-04-01T10:18:25.143Z,94296.7
2023-04-01T10:19:27.223Z,94294.4
2023-04-01T10:20:29.229Z,94299.6
2023-04-01T10:21:31.379Z,94300
2023-04-01T10:22:33.009Z,94302.1
2023-04-01T10:23:34.928Z,94294.3
2023-04-01T10:24:37.087Z,94299.4
2023-04-01T10:25:39.191Z,94298.3
2023-04-01T10:26:41.086Z,94293.5
2023-04-01T10:27:43.210Z,94293.2
2023-04-01T10:28:45.327Z,94301.7
2023-04-01T10:29:47.014Z,94289.2
2023-04-01T10:30:48.985Z,94295.5
2023-04-01T10:31:51.270Z,94288
2023-04-01T10:32:53.426Z,94285
2023-04-01T10:33:55.485Z,94294.1
2023-04-01T10:34:57.448Z,94293.6
2023-04-01T10:35:59.810Z,94293.1
2023-04-01T10:37:01.879Z,94303.3
2023-04-01T10:38:03.829Z,94299.2
2023-04-01T10:39:05.961Z,94305.4
2023-04-01T10:40:08.100Z,94306.2
2023-04-01T10:41:10.169Z,94301.7
2023-04-01T10:42:11.867Z,94306.4
2023-04-01T10:43:13.740Z,94310
2023-04-01T10:44:15.616Z,94306.2
2023-04-01T10:45:17.521Z,94308.7
2023-04-01T10:46:19.834Z,94312.1
2023-04-01T10:47:22.189Z,94309
2023-04-01T10:48:24.337Z,94313.9
2023-04-01T10:49:26.254Z,94309.1
2023-04-01T10:50:28.168Z,94305.3
2023-04-01T10:51:30.529Z,94313.3
2023-04-01T10:52:32.647Z,94314.4
2023-04-01T10:53:34.782Z,94320.2
2023-04-01T10:54:37.019Z,94318.6
2023-04-01T10:55:39.210Z,94328.7
2023-04-01T10:56:41.165Z,94315.1
2023-04-01T10:57:43.288Z,94320.7
2023-04-01T10:58:45.175Z,94318
2023-04-01T10:59:47.224Z,94330
2023-04-01T11:00:49.520Z,94330.3
2023-04-01T11:02:57.089Z,94331.8
2023-04-01T11:03:59.952Z,94352.9
2023-04-01T11:05:02.329Z,94326.4
2023-04-01T11:06:04.221Z,94328.7
2023-04-01T11:07:06.431Z,94325.7
2023-04-01T11:08:08.824Z,94321.8
2023-04-01T11:09:10.935Z,94324.9
2023-04-01T11:10:13.036Z,94325.3
2023-04-01T11:11:15.405Z,94332.4
2023-04-01T11:12:17.526Z,94324.1
2023-04-01T11:13:19.527Z,94321.2
2023-04-01T11:14:21.682Z,94326.1
2023-04-01T11:15:23.792Z,94327.1
2023-04-01T11:16:26.006Z,94327.7
2023-04-01T11:17:28.368Z,94331.3
2023-04-01T11:18:30.566Z,94336.6
2023-04-01T11:19:32.642Z,94329.9
2023-04-01T11:20:34.700Z,94328.3
2023-04-01T11:21:36.590Z,94331.3
2023-04-01T11:22:38.747Z,94328.3
2023-04-01T11:23:40.681Z,94330.2
2023-04-01T11:24:42.751Z,94339.8
2023-04-01T11:25:44.815Z,94328.9
2023-04-01T11:26:46.806Z,94332.6
2023-04-01T11:27:48.978Z,94338.6
2023-04-01T11:28:51.065Z,94333
2023-04-01T11:30:58.164Z,94353
2023-04-01T11:32:00.109Z,94350.2
2023-04-01T11:33:02.481Z,94358.6
2023-04-01T11:34:04.513Z,94336.8
2023-04-01T11:35:06.406Z,94345.6
2023-04-01T11:36:08.141Z,94340.1
2023-04-01T11:37:10.381Z,94343.8
2023-04-01T11:38:12.536Z,94367.8
2023-04-01T11:39:14.675Z,94362.3
2023-04-01T11:40:16.618Z,94358.8
2023-04-01T11:41:18.725Z,94351.1
2023-04-01T11:42:20.684Z,94361.7
2023-04-01T11:44:27.749Z,94372.1
2023-04-01T11:45:29.858Z,94362.1
2023-04-01T11:46:32.238Z,94356.6
2023-04-01T11:47:34.642Z,94355.5
2023-04-01T11:48:36.794Z,94363.9
2023-04-01T11:49:38.927Z,94365.2
2023-04-01T11:50:40.852Z,94352.5
2023-04-01T11:51:42.938Z,94361.6
2023-04-01T11:52:45.098Z,94363.7
2023-04-01T11:53:47.073Z,94363.6
2023-04-01T11:54:49.196Z,94360.8
2023-04-01T11:55:51.767Z,94361.6
2023-04-01T11:56:54.102Z,94358.7
2023-04-01T11:57:56.071Z,94359.8
2023-04-01T11:58:58.208Z,94358.3
2023-04-01T12:00:00.299Z,94366.7
2023-04-01T12:01:02.220Z,94369.4
2023-04-01T12:02:04.858Z,94361.6
2023-04-01T12:03:07.810Z,94364.9
2023-04-01T12:04:10.979Z,94365.1
2023-04-01T12:05:13.390Z,94381.8
2023-04-01T12:06:15.294Z,94358.5
2023-04-01T12:07:17.215Z,94362.5
2023-04-01T12:08:19.092Z,94361.5
2023-04-01T12:09:21.070Z,94361.7
2023-04-01T12:10:23.079Z,94358
2023-04-01T12:11:24.995Z,94374.2
2023-04-01T12:12:27.095Z,94370
2023-04-01T12:13:29.741Z,94371
2023-04-01T12:14:31.839Z,94358.9
2023-04-01T12:15:35.296Z,94361.9
2023-04-01T12:16:38.576Z,94360.7
2023-04-01T12:17:40.651Z,94358.6
2023-04-01T12:18:42.778Z,94357.5
2023-04-01T12:19:44.685Z,94365
2023-04-01T12:20:46.607Z,94382.1
2023-04-01T12:21:48.486Z,94358.7
2023-04-01T12:22:50.572Z,94351.5
2023-04-01T12:23:52.547Z,94360.7
2023-04-01T12:24:54.713Z,94359
2023-04-01T12:25:56.445Z,94357.2
2023-04-01T12:26:58.522Z,94356.6
2023-04-01T12:28:00.518Z,94360.9
2023-04-01T12:29:02.537Z,94356.2
2023-04-01T12:30:04.795Z,94361.4
2023-04-01T12:31:06.707Z,94379.2
2023-04-01T12:32:08.803Z,94360.2
2023-04-01T12:33:11.392Z,94360.6
2023-04-01T12:34:13.567Z,94358.2
2023-04-01T12:35:15.499Z,94358.3
2023-04-01T12:36:17.420Z,94359.4
2023-04-01T12:37:19.332Z,94347.6
2023-04-01T12:38:22.940Z,94360
2023-04-01T12:39:24.969Z,94360.5
2023-04-01T12:40:26.904Z,94353.6
2023-04-01T12:41:29.128Z,94354.6
2023-04-01T12:42:31.200Z,94359.7
2023-04-01T12:43:32.721Z,94357.8